createdAt,value
2019-03-12T00:00:56.535Z,5.30
2019-03-12T00:03:26.266Z,5.00
2019-03-12T00:05:55.994Z,5.40
2019-03-12T00:08:25.888Z,5.33
2019-03-12T00:10:55.566Z,5.03
2019-03-12T00:13:25.232Z,4.67
2019-03-12T00:15:54.904Z,5.00
2019-03-12T00:18:24.557Z,4.60
2019-03-12T00:20:54.221Z,5.30
2019-03-12T00:23:24.111Z,4.83
2019-03-12T00:25:53.777Z,4.70
2019-03-12T00:28:23.449Z,4.60
2019-03-12T00:30:53.289Z,5.00
2019-03-12T00:33:22.925Z,5.23
2019-03-12T00:35:52.825Z,5.30
2019-03-12T00:38:22.504Z,4.78
2019-03-12T00:40:52.167Z,4.40
2019-03-12T00:43:21.856Z,4.57
2019-03-12T00:45:51.510Z,5.30
2019-03-12T00:48:21.180Z,4.70
2019-03-12T00:50:50.853Z,5.23
2019-03-12T00:53:20.528Z,5.40
2019-03-12T00:55:50.272Z,4.60
2019-03-12T00:58:19.938Z,4.65
2019-03-12T01:00:49.599Z,4.90
2019-03-12T01:03:19.257Z,5.60
2019-03-12T01:05:49.297Z,4.97
2019-03-12T01:08:18.959Z,5.20
2019-03-12T01:10:48.621Z,4.60
2019-03-12T01:13:18.987Z,4.47
2019-03-12T01:15:49.690Z,5.57
2019-03-12T01:18:19.457Z,5.15
2019-03-12T01:20:49.508Z,5.67
2019-03-12T01:23:20.153Z,6.10
2019-03-12T01:25:49.824Z,5.90
2019-03-12T01:28:19.895Z,6.43
2019-03-12T01:30:49.555Z,5.70
2019-03-12T01:33:19.218Z,5.70
2019-03-12T01:35:48.900Z,6.40
2019-03-12T01:38:18.566Z,6.28
2019-03-12T01:40:48.483Z,5.80
2019-03-12T01:43:18.472Z,5.37
2019-03-12T01:45:48.200Z,5.63
2019-03-12T01:48:17.885Z,5.80
2019-03-12T01:50:47.540Z,5.83
2019-03-12T01:53:17.209Z,6.33
2019-03-12T01:55:46.885Z,5.80
2019-03-12T01:58:16.547Z,7.10
2019-03-12T02:00:46.287Z,6.00
2019-03-12T02:03:15.964Z,6.12
2019-03-12T02:05:45.632Z,6.57
2019-03-12T02:08:15.768Z,6.25
2019-03-12T02:10:45.424Z,5.90
2019-03-12T02:13:15.324Z,5.70
2019-03-12T02:15:45.305Z,5.80
2019-03-12T02:18:15.213Z,6.80
2019-03-12T02:20:44.882Z,6.25
2019-03-12T02:23:14.548Z,6.12
2019-03-12T02:25:45.181Z,6.60
2019-03-12T02:28:14.865Z,7.17
2019-03-12T02:30:44.602Z,8.27
2019-03-12T02:33:14.345Z,6.72
2019-03-12T02:35:44.244Z,6.03
2019-03-12T02:38:13.997Z,6.23
2019-03-12T02:40:43.659Z,6.20
2019-03-12T02:43:13.309Z,7.30
2019-03-12T02:45:42.965Z,6.93
2019-03-12T02:48:12.650Z,7.80
2019-03-12T02:50:42.317Z,8.47
2019-03-12T02:53:12.003Z,7.33
2019-03-12T02:55:41.668Z,8.70
2019-03-12T02:58:11.325Z,8.10
2019-03-12T03:00:41.257Z,6.90
2019-03-12T03:03:10.955Z,8.13
2019-03-12T03:05:56.166Z,7.53
2019-03-12T03:08:29.874Z,8.00
2019-03-12T03:10:59.614Z,7.80
2019-03-12T03:13:29.327Z,9.93
2019-03-12T03:15:59.005Z,9.23
2019-03-12T03:18:29.215Z,8.17
2019-03-12T03:20:59.351Z,8.33
2019-03-12T03:23:29.094Z,9.13
2019-03-12T03:25:58.713Z,9.63
2019-03-12T03:28:28.385Z,9.40
2019-03-12T03:30:58.074Z,10.10
2019-03-12T03:33:27.734Z,9.70
2019-03-12T03:35:57.399Z,9.70
2019-03-12T03:38:27.141Z,9.73
2019-03-12T03:40:56.888Z,10.63
2019-03-12T03:43:26.546Z,10.60
2019-03-12T03:45:56.229Z,12.83
2019-03-12T03:48:25.967Z,13.27
2019-03-12T03:50:56.683Z,11.97
2019-03-12T03:53:26.354Z,12.30
2019-03-12T03:55:56.034Z,12.20
2019-03-12T03:58:26.004Z,12.95
2019-03-12T04:00:55.727Z,13.57
2019-03-12T04:03:25.392Z,13.87
2019-03-12T04:05:55.156Z,14.03
2019-03-12T04:08:24.841Z,13.57
2019-03-12T04:10:54.521Z,14.87
2019-03-12T04:13:24.191Z,13.73
2019-03-12T04:15:53.876Z,14.77
2019-03-12T04:18:23.537Z,14.13
2019-03-12T04:20:53.215Z,14.40
2019-03-12T04:23:22.897Z,14.78
2019-03-12T04:25:52.562Z,15.37
2019-03-12T04:28:22.228Z,17.32
2019-03-12T04:30:51.923Z,17.37
2019-03-12T04:34:16.800Z,16.33
2019-03-12T04:36:47.698Z,15.50
2019-03-12T04:39:17.719Z,18.80
2019-03-12T04:41:47.374Z,17.50
2019-03-12T04:44:17.126Z,17.07
2019-03-12T04:46:47.896Z,16.70
2019-03-12T04:49:17.560Z,17.85
2019-03-12T04:51:47.239Z,17.10
2019-03-12T04:54:17.012Z,19.50
2019-03-12T04:56:46.703Z,15.73
2019-03-12T04:59:16.367Z,17.55
2019-03-12T05:01:46.320Z,16.67
2019-03-12T05:04:15.982Z,16.57
2019-03-12T05:06:46.634Z,15.97
2019-03-12T05:09:16.579Z,17.27
2019-03-12T05:11:46.269Z,15.80
2019-03-12T05:14:34.877Z,14.47
2019-03-12T05:17:25.054Z,14.98
2019-03-12T05:19:54.721Z,13.00
2019-03-12T05:22:25.261Z,14.97
2019-03-12T05:24:55.235Z,15.23
2019-03-12T05:27:25.178Z,13.67
2019-03-12T05:29:54.881Z,15.23
2019-03-12T05:32:24.642Z,14.13
2019-03-12T05:34:54.314Z,14.33
2019-03-12T05:37:24.312Z,13.87
2019-03-12T05:39:53.999Z,14.20
2019-03-12T05:42:23.747Z,13.17
2019-03-12T05:44:53.373Z,13.30
2019-03-12T05:47:24.138Z,14.43
2019-03-12T05:49:54.073Z,13.23
2019-03-12T05:52:23.747Z,14.13
2019-03-12T05:54:53.469Z,13.37
2019-03-12T05:57:23.153Z,14.07
2019-03-12T05:59:52.816Z,12.30
2019-03-12T06:02:22.754Z,13.22
2019-03-12T06:04:52.420Z,12.03
2019-03-12T06:07:22.114Z,12.55
2019-03-12T06:09:51.796Z,12.93
2019-03-12T06:12:21.469Z,12.63
2019-03-12T06:14:51.156Z,11.57
2019-03-12T06:17:21.061Z,11.23
2019-03-12T06:19:50.895Z,11.67
2019-03-12T06:22:20.818Z,11.17
2019-03-12T06:24:50.529Z,12.33
2019-03-12T06:27:20.449Z,12.27
2019-03-12T06:29:50.117Z,10.90
2019-03-12T06:32:41.592Z,11.87
2019-03-12T06:35:28.666Z,11.23
2019-03-12T06:38:29.745Z,9.90
2019-03-12T06:41:28.281Z,10.37
2019-03-12T06:44:07.712Z,9.43
2019-03-12T06:46:54.812Z,9.00
2019-03-12T06:49:33.357Z,9.33
2019-03-12T06:52:29.008Z,8.73
2019-03-12T06:55:24.256Z,7.97
2019-03-12T06:58:24.845Z,8.47
2019-03-12T07:01:02.223Z,8.43
2019-03-12T07:03:49.595Z,8.33
2019-03-12T07:06:31.047Z,7.55
2019-03-12T07:09:18.399Z,7.47
2019-03-12T07:11:54.664Z,6.60
2019-03-12T07:14:28.802Z,6.50
2019-03-12T07:17:29.561Z,6.30
2019-03-12T07:20:20.164Z,6.47
2019-03-12T07:23:23.885Z,5.57
2019-03-12T07:26:21.331Z,5.30
2019-03-12T07:29:12.797Z,5.53
2019-03-12T07:31:59.882Z,5.40
2019-03-12T07:34:40.752Z,5.93
2019-03-12T07:37:25.056Z,6.10
2019-03-12T07:40:31.787Z,6.60
2019-03-12T07:43:06.964Z,5.80
2019-03-12T07:45:42.447Z,6.05
2019-03-12T07:48:19.838Z,5.65
2019-03-12T07:51:03.502Z,6.83
2019-03-12T07:53:43.530Z,6.30
2019-03-12T07:56:31.525Z,5.60
2019-03-12T07:59:18.917Z,6.90
2019-03-12T08:02:19.708Z,6.53
2019-03-12T08:05:11.523Z,5.77
2019-03-12T08:08:06.053Z,5.87
2019-03-12T08:10:59.245Z,5.57
2019-03-12T08:13:57.005Z,5.75
2019-03-12T08:16:54.841Z,5.80
2019-03-12T08:19:42.361Z,6.07
2019-03-12T08:22:49.141Z,7.47
2019-03-12T08:25:27.061Z,5.35
2019-03-12T08:28:07.083Z,5.77
2019-03-12T08:30:52.214Z,6.00
2019-03-12T08:33:53.440Z,5.80
2019-03-12T08:36:33.413Z,5.27
2019-03-12T08:39:20.754Z,5.53
2019-03-12T08:42:24.612Z,5.63
2019-03-12T08:45:04.154Z,5.30
2019-03-12T08:47:51.348Z,4.80
2019-03-12T08:50:43.067Z,5.00
2019-03-12T08:53:30.269Z,5.00
2019-03-12T08:56:20.564Z,4.57
2019-03-12T08:58:58.872Z,5.27
2019-03-12T09:01:47.385Z,4.73
2019-03-12T09:04:35.152Z,4.53
2019-03-12T09:07:30.205Z,5.15
2019-03-12T09:10:17.580Z,4.53
2019-03-12T09:12:52.793Z,4.80
2019-03-12T09:15:30.322Z,4.35
2019-03-12T09:18:30.979Z,4.90
2019-03-12T09:21:25.935Z,4.00
2019-03-12T09:24:14.876Z,3.67
2019-03-12T09:26:53.526Z,4.47
2019-03-12T09:29:30.761Z,4.63
2019-03-12T09:32:25.264Z,4.20
2019-03-12T09:35:12.637Z,3.83
2019-03-12T09:37:57.535Z,3.90
2019-03-12T09:40:35.588Z,3.87
2019-03-12T09:43:35.206Z,3.10
2019-03-12T09:46:24.571Z,4.00
2019-03-12T09:49:12.449Z,4.10
2019-03-12T09:51:46.949Z,3.77
2019-03-12T09:54:34.515Z,4.17
2019-03-12T09:57:26.741Z,3.27
2019-03-12T10:00:20.476Z,3.43
2019-03-12T10:03:07.891Z,4.23
2019-03-12T10:06:02.484Z,4.53
2019-03-12T10:09:00.292Z,4.97
2019-03-12T10:11:41.982Z,4.00
2019-03-12T10:14:29.375Z,3.87
2019-03-12T10:17:14.328Z,3.77
2019-03-12T10:19:56.823Z,3.17
2019-03-12T10:22:44.734Z,4.17
2019-03-12T10:25:33.429Z,3.83
2019-03-12T10:28:17.352Z,3.83
2019-03-12T10:31:00.531Z,3.23
2019-03-12T10:33:44.243Z,3.70
2019-03-12T10:36:44.773Z,3.27
2019-03-12T10:40:08.898Z,3.30
2019-03-12T10:43:00.639Z,3.90
2019-03-12T10:45:41.579Z,3.60
2019-03-12T10:48:11.237Z,3.37
2019-03-12T10:50:41.063Z,3.58
2019-03-12T10:53:10.718Z,3.00
2019-03-12T10:55:40.453Z,2.77
2019-03-12T10:58:10.121Z,3.33
2019-03-12T11:00:40.697Z,3.35
2019-03-12T11:03:10.423Z,3.37
2019-03-12T11:05:45.862Z,3.63
2019-03-12T11:08:11.807Z,3.30
2019-03-12T11:10:41.460Z,3.07
2019-03-12T11:13:14.437Z,3.33
2019-03-12T11:15:42.729Z,3.47
2019-03-12T11:18:12.378Z,3.00
2019-03-12T11:20:42.034Z,2.70
2019-03-12T11:23:12.080Z,2.93
2019-03-12T11:25:41.818Z,3.13
2019-03-12T11:28:11.731Z,3.10
2019-03-12T11:30:41.523Z,3.07
2019-03-12T11:33:11.268Z,4.35
2019-03-12T11:35:41.021Z,3.00
2019-03-12T11:38:10.781Z,2.90
2019-03-12T11:40:40.558Z,3.47
2019-03-12T11:43:10.308Z,2.80
2019-03-12T11:45:40.020Z,3.83
2019-03-12T11:48:10.296Z,2.77
2019-03-12T11:50:40.069Z,2.90
2019-03-12T11:53:09.813Z,2.83
2019-03-12T11:55:39.497Z,3.17
2019-03-12T11:58:09.149Z,3.00
2019-03-12T12:00:43.258Z,3.13
2019-03-12T12:03:13.010Z,2.83
2019-03-12T12:05:42.694Z,3.33
2019-03-12T12:08:12.936Z,3.10
2019-03-12T12:10:44.053Z,3.37
2019-03-12T12:13:13.703Z,4.10
2019-03-12T12:15:43.432Z,3.07
2019-03-12T12:18:13.180Z,3.00
2019-03-12T12:20:42.846Z,2.77
2019-03-12T12:23:12.505Z,3.00
2019-03-12T12:25:42.190Z,3.20
2019-03-12T12:28:11.865Z,3.03
2019-03-12T12:30:41.604Z,3.30
2019-03-12T12:33:11.447Z,2.60
2019-03-12T12:35:41.112Z,3.23
2019-03-12T12:38:10.796Z,2.80
2019-03-12T12:40:40.446Z,2.70
2019-03-12T12:43:10.426Z,3.10
2019-03-12T12:45:40.182Z,2.80
2019-03-12T12:48:10.056Z,2.93
2019-03-12T12:50:39.816Z,2.80
2019-03-12T12:53:09.490Z,3.10
2019-03-12T12:55:39.388Z,3.20
2019-03-12T12:58:09.487Z,2.40
2019-03-12T13:00:39.300Z,2.53
2019-03-12T13:03:09.285Z,2.47
2019-03-12T13:05:38.941Z,2.50
2019-03-12T13:08:09.685Z,2.47
2019-03-12T13:10:39.434Z,2.47
2019-03-12T13:13:09.179Z,3.33
2019-03-12T13:15:39.087Z,2.90
2019-03-12T13:18:08.749Z,2.60
2019-03-12T13:20:38.432Z,2.50
2019-03-12T13:23:08.250Z,2.80
2019-03-12T13:25:37.981Z,2.80
2019-03-12T13:28:07.663Z,2.73
2019-03-12T13:30:37.399Z,2.30
2019-03-12T13:33:07.129Z,2.30
2019-03-12T13:35:36.820Z,3.02
2019-03-12T13:38:06.620Z,2.10
2019-03-12T13:40:36.274Z,2.53
2019-03-12T13:43:06.513Z,3.10
2019-03-12T13:45:36.428Z,2.20
2019-03-12T13:48:06.130Z,2.27
2019-03-12T13:50:36.413Z,2.40
2019-03-12T13:53:06.134Z,2.30
2019-03-12T13:55:35.809Z,2.40
2019-03-12T13:58:05.539Z,2.33
2019-03-12T14:00:35.284Z,2.50
2019-03-12T14:03:05.113Z,2.20
2019-03-12T14:05:34.769Z,2.47
2019-03-12T14:08:05.423Z,2.60
2019-03-12T14:10:35.164Z,2.12
2019-03-12T14:13:05.566Z,2.52
2019-03-12T14:15:35.501Z,1.90
2019-03-12T14:18:05.615Z,2.57
2019-03-12T14:20:46.313Z,2.40
2019-03-12T14:23:24.626Z,2.40
2019-03-12T14:25:54.525Z,2.73
2019-03-12T14:28:24.264Z,2.57
2019-03-12T14:30:54.112Z,2.70
2019-03-12T14:33:23.915Z,3.33
2019-03-12T14:35:53.650Z,2.50
2019-03-12T14:38:23.676Z,2.37
2019-03-12T14:40:53.916Z,2.40
2019-03-12T14:43:23.647Z,2.50
2019-03-12T14:45:53.470Z,2.57
2019-03-12T14:48:47.275Z,2.93
2019-03-12T14:51:32.518Z,2.40
2019-03-12T14:54:02.349Z,2.87
2019-03-12T14:56:32.307Z,3.17
2019-03-12T14:59:02.307Z,2.47
2019-03-12T15:01:32.124Z,2.63
2019-03-12T15:04:01.934Z,2.60
2019-03-12T15:06:31.671Z,2.17
2019-03-12T15:09:01.348Z,2.27
2019-03-12T15:11:32.704Z,1.90
2019-03-12T15:14:02.363Z,2.57
2019-03-12T15:16:32.172Z,2.73
2019-03-12T15:19:01.860Z,2.10
2019-03-12T15:21:31.592Z,2.40
2019-03-12T15:24:02.426Z,2.13
2019-03-12T15:26:32.077Z,2.60
2019-03-12T15:29:01.811Z,2.27
2019-03-12T15:31:31.478Z,2.20
2019-03-12T15:34:02.131Z,2.43
2019-03-12T15:36:31.778Z,2.60
2019-03-12T15:39:01.511Z,2.73
2019-03-12T15:41:32.840Z,2.20
2019-03-12T15:44:02.879Z,2.60
2019-03-12T15:46:32.545Z,2.57
2019-03-12T15:49:02.236Z,2.50
2019-03-12T15:51:31.888Z,2.60
2019-03-12T15:54:01.550Z,2.87
2019-03-12T15:56:31.226Z,2.50
2019-03-12T15:59:00.880Z,2.37
2019-03-12T16:01:30.549Z,2.87
2019-03-12T16:04:00.214Z,2.60
2019-03-12T16:06:29.864Z,2.13
2019-03-12T16:08:59.527Z,2.97
2019-03-12T16:11:31.206Z,2.80
2019-03-12T16:14:00.544Z,2.83
2019-03-12T16:16:30.301Z,2.43
2019-03-12T16:19:00.036Z,2.70
2019-03-12T16:21:29.717Z,2.70
2019-03-12T16:23:59.514Z,3.27
2019-03-12T16:26:29.187Z,2.60
2019-03-12T16:28:58.848Z,2.65
2019-03-12T16:31:28.511Z,3.07
2019-03-12T16:33:58.178Z,2.77
2019-03-12T16:36:28.100Z,3.17
2019-03-12T16:38:57.757Z,2.40
2019-03-12T16:41:27.426Z,2.40
2019-03-12T16:43:57.118Z,2.13
2019-03-12T16:46:26.796Z,2.40
2019-03-12T16:48:59.091Z,1.93
2019-03-12T16:51:29.084Z,2.20
2019-03-12T16:53:58.748Z,2.03
2019-03-12T16:56:28.406Z,2.50
2019-03-12T16:58:58.075Z,2.60
2019-03-12T17:01:28.708Z,2.40
2019-03-12T17:03:58.782Z,2.47
2019-03-12T17:06:28.517Z,2.47
2019-03-12T17:08:58.238Z,2.83
2019-03-12T17:11:27.919Z,2.70
2019-03-12T17:13:57.568Z,2.90
2019-03-12T17:16:27.230Z,2.93
2019-03-12T17:18:57.138Z,2.20
2019-03-12T17:21:26.830Z,2.03
2019-03-12T17:23:57.870Z,2.43
2019-03-12T17:26:28.492Z,1.80
2019-03-12T17:28:58.948Z,2.20
2019-03-12T17:31:28.594Z,2.13
2019-03-12T17:33:58.286Z,1.97
2019-03-12T17:36:28.607Z,2.10
2019-03-12T17:38:58.354Z,2.23
2019-03-12T17:41:28.049Z,2.40
2019-03-12T17:43:58.153Z,2.50
2019-03-12T17:46:27.840Z,2.17
2019-03-12T17:48:57.510Z,1.90
2019-03-12T17:51:27.182Z,2.27
2019-03-12T17:53:56.872Z,2.70
2019-03-12T17:56:26.532Z,2.77
2019-03-12T17:58:56.182Z,3.00
2019-03-12T18:01:30.140Z,2.20
2019-03-12T18:03:57.215Z,2.67
2019-03-12T18:06:26.882Z,2.30
2019-03-12T18:08:56.547Z,2.43
2019-03-12T18:11:26.223Z,1.97
2019-03-12T18:13:56.141Z,2.30
2019-03-12T18:16:25.790Z,2.40
2019-03-12T18:18:55.465Z,2.13
2019-03-12T18:21:25.102Z,2.53
2019-03-12T18:23:54.763Z,2.33
2019-03-12T18:26:24.430Z,2.00
2019-03-12T18:28:54.078Z,2.00
2019-03-12T18:31:23.743Z,2.17
2019-03-12T18:33:53.390Z,1.87
2019-03-12T18:36:23.521Z,2.10
2019-03-12T18:38:54.342Z,2.43
2019-03-12T18:41:24.004Z,2.63
2019-03-12T18:43:53.663Z,2.50
2019-03-12T18:46:23.399Z,2.33
2019-03-12T18:48:53.048Z,2.12
2019-03-12T18:51:22.726Z,1.90
2019-03-12T18:53:52.376Z,2.03
2019-03-12T18:56:22.036Z,2.20
2019-03-12T18:58:51.963Z,2.03
2019-03-12T19:01:21.615Z,2.27
2019-03-12T19:03:51.279Z,2.00
2019-03-12T19:06:21.024Z,2.10
2019-03-12T19:08:50.763Z,1.93
2019-03-12T19:11:20.498Z,2.10
2019-03-12T19:13:50.555Z,2.10
2019-03-12T19:16:20.215Z,2.57
2019-03-12T19:18:50.029Z,2.33
2019-03-12T19:21:19.678Z,2.60
2019-03-12T19:23:49.341Z,2.40
2019-03-12T19:26:19.071Z,2.50
2019-03-12T19:28:49.794Z,2.70
2019-03-12T19:31:41.570Z,2.30
2019-03-12T19:34:14.901Z,2.63
2019-03-12T19:36:44.580Z,2.60
2019-03-12T19:39:15.801Z,3.10
2019-03-12T19:41:47.067Z,2.57
2019-03-12T19:44:16.818Z,2.50
2019-03-12T19:46:46.728Z,2.40
2019-03-12T19:49:16.398Z,3.13
2019-03-12T19:51:46.057Z,3.23
2019-03-12T19:54:17.842Z,3.40
2019-03-12T19:56:47.490Z,3.00
2019-03-12T19:59:17.244Z,2.87
2019-03-12T20:01:49.566Z,3.57
2019-03-12T20:04:19.222Z,2.70
2019-03-12T20:06:48.896Z,2.93
2019-03-12T20:09:30.218Z,3.37
2019-03-12T20:12:34.955Z,3.10
2019-03-12T20:15:39.530Z,3.60
2019-03-12T20:19:03.663Z,3.80
2019-03-12T20:22:02.809Z,3.30
2019-03-12T20:25:02.506Z,3.60
2019-03-12T20:28:24.816Z,3.50
2019-03-12T20:31:38.036Z,3.20
2019-03-12T20:34:37.528Z,3.50
2019-03-12T20:37:42.968Z,3.23
2019-03-12T20:41:18.580Z,3.50
2019-03-12T20:44:31.319Z,3.83
2019-03-12T20:47:39.544Z,3.90
2019-03-12T20:50:32.937Z,3.60
2019-03-12T20:53:45.860Z,3.30
2019-03-12T20:56:52.687Z,4.27
2019-03-12T20:59:57.972Z,4.37
2019-03-12T21:03:13.206Z,3.20
2019-03-12T21:06:25.310Z,2.37
2019-03-12T21:09:42.113Z,1.67
2019-03-12T21:12:33.649Z,1.73
2019-03-12T21:15:39.430Z,1.60
2019-03-12T21:18:49.323Z,1.57
2019-03-12T21:22:03.620Z,1.70
2019-03-12T21:24:53.894Z,2.20
2019-03-12T21:28:15.567Z,2.40
2019-03-12T21:30:45.303Z,2.70
2019-03-12T21:33:15.827Z,2.60
2019-03-12T21:35:45.649Z,3.03
2019-03-12T21:38:15.307Z,2.50
2019-03-12T21:40:45.158Z,2.27
2019-03-12T21:43:14.961Z,2.12
2019-03-12T21:45:45.010Z,2.30
2019-03-12T21:48:14.653Z,2.20
2019-03-12T21:50:44.402Z,2.03
2019-03-12T21:53:14.317Z,2.00
2019-03-12T21:55:44.011Z,2.20
2019-03-12T21:58:13.748Z,2.80
2019-03-12T22:00:43.484Z,2.37
2019-03-12T22:03:16.282Z,2.57
2019-03-12T22:05:45.720Z,3.00
2019-03-12T22:08:15.369Z,3.20
2019-03-12T22:10:45.026Z,3.10
2019-03-12T22:13:14.682Z,2.50
2019-03-12T22:15:44.329Z,3.63
2019-03-12T22:18:14.053Z,2.70
2019-03-12T22:20:43.699Z,3.00
2019-03-12T22:23:22.645Z,3.43
2019-03-12T22:25:52.294Z,2.83
2019-03-12T22:28:21.953Z,3.67
2019-03-12T22:30:51.626Z,3.20
2019-03-12T22:33:21.295Z,3.50
2019-03-12T22:35:50.982Z,3.60
2019-03-12T22:38:20.709Z,3.80
2019-03-12T22:40:50.372Z,4.30
2019-03-12T22:43:20.105Z,3.40
2019-03-12T22:45:50.725Z,3.50
2019-03-12T22:48:20.377Z,3.97
2019-03-12T22:50:50.030Z,3.97
2019-03-12T22:53:19.681Z,3.30
2019-03-12T22:55:49.342Z,3.60
2019-03-12T22:58:18.991Z,3.58
2019-03-12T23:01:06.747Z,3.50
2019-03-12T23:03:54.047Z,3.50
2019-03-12T23:06:41.246Z,4.23
2019-03-12T23:09:28.984Z,3.70
2019-03-12T23:12:00.577Z,3.53
2019-03-12T23:14:31.841Z,4.07
2019-03-12T23:17:01.796Z,4.37
2019-03-12T23:19:31.726Z,4.58
2019-03-12T23:22:01.437Z,3.90
2019-03-12T23:24:31.270Z,4.30
2019-03-12T23:27:01.178Z,4.17
2019-03-12T23:29:30.976Z,4.43
2019-03-12T23:32:00.715Z,4.77
2019-03-12T23:34:30.423Z,4.93
2019-03-12T23:37:00.077Z,4.73
2019-03-12T23:39:29.817Z,4.40
2019-03-12T23:41:59.546Z,5.70
2019-03-12T23:44:29.522Z,5.70
2019-03-12T23:46:59.230Z,5.40
2019-03-12T23:49:29.067Z,6.67
2019-03-12T23:51:58.862Z,6.90
2019-03-12T23:54:28.658Z,6.50
2019-03-12T23:56:58.302Z,7.70
2019-03-12T23:59:28.266Z,10.43
